sensor_id;sensor_type;location;lat;lon;timestamp;P1;durP1;ratioP1;P2;durP2;ratioP2
79139;SDS011;68546;59.142;37.948;2024-02-21T00:01:15;424.77;;;114.30;;
79139;SDS011;68546;59.142;37.948;2024-02-21T00:03:42;424.43;;;113.87;;
79139;SDS011;68546;59.142;37.948;2024-02-21T00:06:09;425.75;;;114.28;;
79139;SDS011;68546;59.142;37.948;2024-02-21T00:08:35;422.90;;;113.88;;
79139;SDS011;68546;59.142;37.948;2024-02-21T00:11:02;420.97;;;113.53;;
79139;SDS011;68546;59.142;37.948;2024-02-21T00:13:28;424.00;;;114.05;;
79139;SDS011;68546;59.142;37.948;2024-02-21T00:15:55;425.25;;;115.05;;
79139;SDS011;68546;59.142;37.948;2024-02-21T00:18:22;423.13;;;114.18;;
79139;SDS011;68546;59.142;37.948;2024-02-21T00:20:49;424.13;;;114.60;;
79139;SDS011;68546;59.142;37.948;2024-02-21T00:23:16;425.48;;;115.15;;
79139;SDS011;68546;59.142;37.948;2024-02-21T00:25:42;425.45;;;114.90;;
79139;SDS011;68546;59.142;37.948;2024-02-21T00:28:09;422.40;;;114.33;;
79139;SDS011;68546;59.142;37.948;2024-02-21T00:30:35;425.02;;;114.20;;
79139;SDS011;68546;59.142;37.948;2024-02-21T00:33:04;424.80;;;114.70;;
79139;SDS011;68546;59.142;37.948;2024-02-21T00:35:31;424.83;;;115.33;;
79139;SDS011;68546;59.142;37.948;2024-02-21T00:37:57;424.63;;;114.35;;
79139;SDS011;68546;59.142;37.948;2024-02-21T00:40:25;426.50;;;115.22;;
79139;SDS011;68546;59.142;37.948;2024-02-21T00:42:52;423.08;;;114.75;;
79139;SDS011;68546;59.142;37.948;2024-02-21T00:45:18;422.15;;;114.70;;
79139;SDS011;68546;59.142;37.948;2024-02-21T00:47:45;424.52;;;115.00;;
79139;SDS011;68546;59.142;37.948;2024-02-21T00:50:12;424.70;;;114.85;;
79139;SDS011;68546;59.142;37.948;2024-02-21T00:52:38;422.30;;;114.30;;
79139;SDS011;68546;59.142;37.948;2024-02-21T00:55:05;424.60;;;114.55;;
79139;SDS011;68546;59.142;37.948;2024-02-21T00:57:32;423.30;;;114.55;;
79139;SDS011;68546;59.142;37.948;2024-02-21T00:59:58;422.20;;;113.93;;
79139;SDS011;68546;59.142;37.948;2024-02-21T01:02:25;422.42;;;113.82;;
79139;SDS011;68546;59.142;37.948;2024-02-21T01:04:52;425.08;;;115.07;;
79139;SDS011;68546;59.142;37.948;2024-02-21T01:07:19;424.00;;;114.72;;
79139;SDS011;68546;59.142;37.948;2024-02-21T01:09:45;426.42;;;115.95;;
79139;SDS011;68546;59.142;37.948;2024-02-21T01:12:12;425.63;;;115.30;;
79139;SDS011;68546;59.142;37.948;2024-02-21T01:14:38;423.45;;;114.10;;
79139;SDS011;68546;59.142;37.948;2024-02-21T01:17:05;422.53;;;114.27;;
79139;SDS011;68546;59.142;37.948;2024-02-21T01:19:32;423.60;;;114.43;;
79139;SDS011;68546;59.142;37.948;2024-02-21T01:21:58;422.27;;;114.53;;
79139;SDS011;68546;59.142;37.948;2024-02-21T01:24:25;422.40;;;114.77;;
79139;SDS011;68546;59.142;37.948;2024-02-21T01:26:52;424.42;;;114.22;;
79139;SDS011;68546;59.142;37.948;2024-02-21T01:29:18;423.33;;;114.43;;
79139;SDS011;68546;59.142;37.948;2024-02-21T01:31:45;422.08;;;114.20;;
79139;SDS011;68546;59.142;37.948;2024-02-21T01:34:11;420.23;;;113.82;;
79139;SDS011;68546;59.142;37.948;2024-02-21T01:36:38;426.33;;;116.03;;
79139;SDS011;68546;59.142;37.948;2024-02-21T01:39:04;422.70;;;115.00;;
79139;SDS011;68546;59.142;37.948;2024-02-21T01:41:31;423.97;;;114.60;;
79139;SDS011;68546;59.142;37.948;2024-02-21T01:43:57;423.80;;;114.97;;
79139;SDS011;68546;59.142;37.948;2024-02-21T01:46:24;422.95;;;114.25;;
79139;SDS011;68546;59.142;37.948;2024-02-21T01:48:56;424.10;;;115.17;;
79139;SDS011;68546;59.142;37.948;2024-02-21T01:51:23;422.67;;;114.72;;
79139;SDS011;68546;59.142;37.948;2024-02-21T01:53:51;423.15;;;114.47;;
79139;SDS011;68546;59.142;37.948;2024-02-21T01:56:21;425.85;;;115.28;;
79139;SDS011;68546;59.142;37.948;2024-02-21T01:58:48;422.27;;;114.95;;
79139;SDS011;68546;59.142;37.948;2024-02-21T02:01:15;426.52;;;115.90;;
79139;SDS011;68546;59.142;37.948;2024-02-21T02:03:44;423.27;;;115.70;;
79139;SDS011;68546;59.142;37.948;2024-02-21T02:06:12;425.77;;;115.00;;
79139;SDS011;68546;59.142;37.948;2024-02-21T02:08:39;427.25;;;117.15;;
79139;SDS011;68546;59.142;37.948;2024-02-21T02:11:05;423.40;;;115.43;;
79139;SDS011;68546;59.142;37.948;2024-02-21T02:13:32;421.93;;;115.13;;
79139;SDS011;68546;59.142;37.948;2024-02-21T02:15:59;424.40;;;116.13;;
79139;SDS011;68546;59.142;37.948;2024-02-21T02:18:26;426.75;;;117.38;;
79139;SDS011;68546;59.142;37.948;2024-02-21T02:20:53;425.50;;;116.03;;
79139;SDS011;68546;59.142;37.948;2024-02-21T02:23:21;426.30;;;116.38;;
79139;SDS011;68546;59.142;37.948;2024-02-21T02:25:53;427.45;;;117.05;;
79139;SDS011;68546;59.142;37.948;2024-02-21T02:28:20;425.00;;;115.22;;
79139;SDS011;68546;59.142;37.948;2024-02-21T02:30:47;424.90;;;115.50;;
79139;SDS011;68546;59.142;37.948;2024-02-21T02:33:15;425.75;;;115.60;;
79139;SDS011;68546;59.142;37.948;2024-02-21T02:35:43;423.85;;;115.18;;
79139;SDS011;68546;59.142;37.948;2024-02-21T02:38:10;424.13;;;116.37;;
79139;SDS011;68546;59.142;37.948;2024-02-21T02:40:38;423.90;;;116.07;;
79139;SDS011;68546;59.142;37.948;2024-02-21T02:43:05;426.52;;;116.70;;
79139;SDS011;68546;59.142;37.948;2024-02-21T02:45:32;422.42;;;115.38;;
79139;SDS011;68546;59.142;37.948;2024-02-21T02:48:00;422.52;;;115.75;;
79139;SDS011;68546;59.142;37.948;2024-02-21T02:50:27;427.15;;;116.22;;
79139;SDS011;68546;59.142;37.948;2024-02-21T02:52:54;425.13;;;115.88;;
79139;SDS011;68546;59.142;37.948;2024-02-21T02:55:21;422.40;;;115.07;;
79139;SDS011;68546;59.142;37.948;2024-02-21T02:57:48;425.95;;;115.85;;
79139;SDS011;68546;59.142;37.948;2024-02-21T03:00:14;423.88;;;115.60;;
79139;SDS011;68546;59.142;37.948;2024-02-21T03:02:42;425.07;;;116.00;;
79139;SDS011;68546;59.142;37.948;2024-02-21T03:05:11;424.80;;;115.47;;
79139;SDS011;68546;59.142;37.948;2024-02-21T03:07:48;422.60;;;115.50;;
79139;SDS011;68546;59.142;37.948;2024-02-21T03:10:15;425.30;;;115.90;;
79139;SDS011;68546;59.142;37.948;2024-02-21T03:12:42;421.48;;;115.28;;
79139;SDS011;68546;59.142;37.948;2024-02-21T03:15:09;425.80;;;116.68;;
79139;SDS011;68546;59.142;37.948;2024-02-21T03:17:36;425.38;;;117.05;;
79139;SDS011;68546;59.142;37.948;2024-02-21T03:20:02;421.63;;;114.50;;
79139;SDS011;68546;59.142;37.948;2024-02-21T03:22:36;426.27;;;115.90;;
79139;SDS011;68546;59.142;37.948;2024-02-21T03:25:03;422.77;;;114.82;;
79139;SDS011;68546;59.142;37.948;2024-02-21T03:27:32;424.30;;;115.90;;
79139;SDS011;68546;59.142;37.948;2024-02-21T03:29:58;422.90;;;115.38;;
79139;SDS011;68546;59.142;37.948;2024-02-21T03:32:25;424.98;;;114.85;;
79139;SDS011;68546;59.142;37.948;2024-02-21T03:34:51;424.35;;;115.57;;
79139;SDS011;68546;59.142;37.948;2024-02-21T03:37:18;423.63;;;115.68;;
79139;SDS011;68546;59.142;37.948;2024-02-21T03:39:45;425.00;;;115.72;;
79139;SDS011;68546;59.142;37.948;2024-02-21T03:42:11;424.40;;;115.60;;
79139;SDS011;68546;59.142;37.948;2024-02-21T03:44:38;423.27;;;114.60;;
79139;SDS011;68546;59.142;37.948;2024-02-21T03:47:04;423.52;;;115.07;;
79139;SDS011;68546;59.142;37.948;2024-02-21T03:49:31;423.45;;;114.32;;
79139;SDS011;68546;59.142;37.948;2024-02-21T03:51:57;422.37;;;114.37;;
79139;SDS011;68546;59.142;37.948;2024-02-21T03:54:24;422.42;;;113.85;;
79139;SDS011;68546;59.142;37.948;2024-02-21T03:56:50;421.67;;;113.78;;
79139;SDS011;68546;59.142;37.948;2024-02-21T03:59:17;423.17;;;115.25;;
79139;SDS011;68546;59.142;37.948;2024-02-21T04:01:44;420.63;;;113.82;;
79139;SDS011;68546;59.142;37.948;2024-02-21T04:04:10;424.25;;;116.30;;
79139;SDS011;68546;59.142;37.948;2024-02-21T04:06:37;421.33;;;113.72;;
79139;SDS011;68546;59.142;37.948;2024-02-21T04:09:11;419.60;;;113.73;;
79139;SDS011;68546;59.142;37.948;2024-02-21T04:11:38;423.25;;;116.05;;
79139;SDS011;68546;59.142;37.948;2024-02-21T04:14:04;420.45;;;114.28;;
79139;SDS011;68546;59.142;37.948;2024-02-21T04:16:31;419.47;;;114.37;;
79139;SDS011;68546;59.142;37.948;2024-02-21T04:18:57;421.98;;;114.20;;
79139;SDS011;68546;59.142;37.948;2024-02-21T04:21:24;422.42;;;114.78;;
79139;SDS011;68546;59.142;37.948;2024-02-21T04:23:50;421.67;;;114.05;;
79139;SDS011;68546;59.142;37.948;2024-02-21T04:26:17;423.58;;;115.22;;
79139;SDS011;68546;59.142;37.948;2024-02-21T04:28:44;425.67;;;116.40;;
79139;SDS011;68546;59.142;37.948;2024-02-21T04:31:11;422.98;;;114.90;;
79139;SDS011;68546;59.142;37.948;2024-02-21T04:33:38;424.20;;;114.93;;
79139;SDS011;68546;59.142;37.948;2024-02-21T04:36:04;426.17;;;115.32;;
79139;SDS011;68546;59.142;37.948;2024-02-21T04:38:31;421.23;;;114.80;;
79139;SDS011;68546;59.142;37.948;2024-02-21T04:40:57;422.83;;;114.57;;
79139;SDS011;68546;59.142;37.948;2024-02-21T04:43:25;423.30;;;114.95;;
79139;SDS011;68546;59.142;37.948;2024-02-21T04:45:51;425.20;;;115.88;;
79139;SDS011;68546;59.142;37.948;2024-02-21T04:48:19;423.33;;;116.05;;
79139;SDS011;68546;59.142;37.948;2024-02-21T04:50:46;424.38;;;115.55;;
79139;SDS011;68546;59.142;37.948;2024-02-21T04:53:15;424.85;;;115.95;;
79139;SDS011;68546;59.142;37.948;2024-02-21T04:55:42;426.80;;;116.28;;
79139;SDS011;68546;59.142;37.948;2024-02-21T04:58:09;424.20;;;115.00;;
79139;SDS011;68546;59.142;37.948;2024-02-21T05:00:35;425.88;;;115.95;;
79139;SDS011;68546;59.142;37.948;2024-02-21T05:03:02;423.58;;;115.10;;
79139;SDS011;68546;59.142;37.948;2024-02-21T05:05:29;423.23;;;115.37;;
79139;SDS011;68546;59.142;37.948;2024-02-21T05:07:55;422.85;;;114.80;;
79139;SDS011;68546;59.142;37.948;2024-02-21T05:10:22;425.23;;;115.72;;
79139;SDS011;68546;59.142;37.948;2024-02-21T05:12:48;422.13;;;114.78;;
79139;SDS011;68546;59.142;37.948;2024-02-21T05:15:15;424.63;;;116.43;;
79139;SDS011;68546;59.142;37.948;2024-02-21T05:17:42;424.60;;;115.47;;
79139;SDS011;68546;59.142;37.948;2024-02-21T05:20:09;423.15;;;115.38;;
79139;SDS011;68546;59.142;37.948;2024-02-21T05:22:36;421.97;;;114.97;;
79139;SDS011;68546;59.142;37.948;2024-02-21T05:25:02;423.27;;;115.00;;
79139;SDS011;68546;59.142;37.948;2024-02-21T05:27:29;424.73;;;115.35;;
79139;SDS011;68546;59.142;37.948;2024-02-21T05:29:56;420.50;;;114.83;;
79139;SDS011;68546;59.142;37.948;2024-02-21T05:32:22;422.42;;;115.10;;
79139;SDS011;68546;59.142;37.948;2024-02-21T05:34:49;422.55;;;114.82;;
79139;SDS011;68546;59.142;37.948;2024-02-21T05:37:16;423.00;;;115.28;;
79139;SDS011;68546;59.142;37.948;2024-02-21T05:39:43;423.58;;;115.40;;
79139;SDS011;68546;59.142;37.948;2024-02-21T05:42:10;424.67;;;116.15;;
79139;SDS011;68546;59.142;37.948;2024-02-21T05:44:36;423.00;;;115.00;;
79139;SDS011;68546;59.142;37.948;2024-02-21T05:47:03;422.97;;;114.57;;
79139;SDS011;68546;59.142;37.948;2024-02-21T05:49:29;423.20;;;114.72;;
79139;SDS011;68546;59.142;37.948;2024-02-21T05:51:56;420.77;;;113.80;;
79139;SDS011;68546;59.142;37.948;2024-02-21T05:54:22;423.97;;;114.77;;
79139;SDS011;68546;59.142;37.948;2024-02-21T05:56:49;422.10;;;113.72;;
79139;SDS011;68546;59.142;37.948;2024-02-21T05:59:16;421.85;;;113.47;;
79139;SDS011;68546;59.142;37.948;2024-02-21T06:01:42;418.73;;;113.53;;
79139;SDS011;68546;59.142;37.948;2024-02-21T06:04:09;423.38;;;114.53;;
79139;SDS011;68546;59.142;37.948;2024-02-21T06:06:35;423.65;;;114.45;;
79139;SDS011;68546;59.142;37.948;2024-02-21T06:09:02;418.05;;;112.85;;
79139;SDS011;68546;59.142;37.948;2024-02-21T06:11:29;420.00;;;112.97;;
79139;SDS011;68546;59.142;37.948;2024-02-21T06:13:55;420.45;;;112.55;;
79139;SDS011;68546;59.142;37.948;2024-02-21T06:16:22;419.25;;;113.57;;
79139;SDS011;68546;59.142;37.948;2024-02-21T06:18:48;422.37;;;113.93;;
79139;SDS011;68546;59.142;37.948;2024-02-21T06:21:16;418.25;;;112.95;;
79139;SDS011;68546;59.142;37.948;2024-02-21T06:23:43;419.67;;;113.55;;
79139;SDS011;68546;59.142;37.948;2024-02-21T06:26:09;417.83;;;112.75;;
79139;SDS011;68546;59.142;37.948;2024-02-21T06:28:36;419.95;;;113.05;;
79139;SDS011;68546;59.142;37.948;2024-02-21T06:31:02;420.92;;;114.63;;
79139;SDS011;68546;59.142;37.948;2024-02-21T06:33:29;420.05;;;112.63;;
79139;SDS011;68546;59.142;37.948;2024-02-21T06:35:56;417.13;;;112.07;;
79139;SDS011;68546;59.142;37.948;2024-02-21T06:38:22;418.17;;;112.32;;
79139;SDS011;68546;59.142;37.948;2024-02-21T06:40:49;415.30;;;111.43;;
79139;SDS011;68546;59.142;37.948;2024-02-21T06:43:18;415.40;;;110.97;;
79139;SDS011;68546;59.142;37.948;2024-02-21T06:45:47;420.75;;;113.32;;
79139;SDS011;68546;59.142;37.948;2024-02-21T06:48:17;416.42;;;111.93;;
79139;SDS011;68546;59.142;37.948;2024-02-21T06:50:44;417.80;;;111.97;;
79139;SDS011;68546;59.142;37.948;2024-02-21T06:53:11;416.73;;;112.43;;
79139;SDS011;68546;59.142;37.948;2024-02-21T06:55:38;419.92;;;113.20;;
79139;SDS011;68546;59.142;37.948;2024-02-21T06:58:05;416.52;;;111.93;;
79139;SDS011;68546;59.142;37.948;2024-02-21T07:00:34;417.43;;;111.10;;
79139;SDS011;68546;59.142;37.948;2024-02-21T07:03:01;417.63;;;111.90;;
79139;SDS011;68546;59.142;37.948;2024-02-21T07:05:28;416.05;;;112.10;;
79139;SDS011;68546;59.142;37.948;2024-02-21T07:07:55;415.23;;;111.63;;
79139;SDS011;68546;59.142;37.948;2024-02-21T07:10:21;417.52;;;111.15;;
79139;SDS011;68546;59.142;37.948;2024-02-21T07:12:48;414.00;;;111.30;;
79139;SDS011;68546;59.142;37.948;2024-02-21T07:15:14;414.17;;;111.50;;
79139;SDS011;68546;59.142;37.948;2024-02-21T07:17:41;413.40;;;111.90;;
79139;SDS011;68546;59.142;37.948;2024-02-21T07:20:08;413.33;;;111.05;;
79139;SDS011;68546;59.142;37.948;2024-02-21T07:22:34;411.17;;;109.72;;
79139;SDS011;68546;59.142;37.948;2024-02-21T07:25:01;413.00;;;110.20;;
79139;SDS011;68546;59.142;37.948;2024-02-21T07:27:28;412.67;;;109.50;;
79139;SDS011;68546;59.142;37.948;2024-02-21T07:29:57;407.48;;;108.90;;
79139;SDS011;68546;59.142;37.948;2024-02-21T07:32:23;409.47;;;109.23;;
79139;SDS011;68546;59.142;37.948;2024-02-21T07:34:50;411.25;;;109.72;;
79139;SDS011;68546;59.142;37.948;2024-02-21T07:37:16;408.90;;;108.22;;
79139;SDS011;68546;59.142;37.948;2024-02-21T07:39:43;409.80;;;109.20;;
79139;SDS011;68546;59.142;37.948;2024-02-21T07:42:09;412.08;;;109.38;;
79139;SDS011;68546;59.142;37.948;2024-02-21T07:44:36;408.95;;;109.05;;
79139;SDS011;68546;59.142;37.948;2024-02-21T07:47:03;406.70;;;107.78;;
79139;SDS011;68546;59.142;37.948;2024-02-21T07:49:29;406.90;;;107.60;;
79139;SDS011;68546;59.142;37.948;2024-02-21T07:51:57;408.15;;;107.53;;
79139;SDS011;68546;59.142;37.948;2024-02-21T07:54:23;407.15;;;106.93;;
79139;SDS011;68546;59.142;37.948;2024-02-21T07:56:49;406.43;;;107.03;;
79139;SDS011;68546;59.142;37.948;2024-02-21T07:59:16;405.00;;;106.93;;
79139;SDS011;68546;59.142;37.948;2024-02-21T08:01:43;405.67;;;106.65;;
79139;SDS011;68546;59.142;37.948;2024-02-21T08:04:10;405.80;;;107.05;;
79139;SDS011;68546;59.142;37.948;2024-02-21T08:06:37;405.95;;;107.70;;
79139;SDS011;68546;59.142;37.948;2024-02-21T08:09:03;404.95;;;107.68;;
79139;SDS011;68546;59.142;37.948;2024-02-21T08:11:30;402.63;;;106.60;;
79139;SDS011;68546;59.142;37.948;2024-02-21T08:13:56;399.30;;;104.47;;
79139;SDS011;68546;59.142;37.948;2024-02-21T08:16:23;403.38;;;105.97;;
79139;SDS011;68546;59.142;37.948;2024-02-21T08:18:50;398.33;;;103.90;;
79139;SDS011;68546;59.142;37.948;2024-02-21T08:21:16;398.87;;;104.20;;
79139;SDS011;68546;59.142;37.948;2024-02-21T08:23:43;399.92;;;105.18;;
79139;SDS011;68546;59.142;37.948;2024-02-21T08:26:10;398.58;;;104.18;;
79139;SDS011;68546;59.142;37.948;2024-02-21T08:28:37;400.15;;;105.15;;
79139;SDS011;68546;59.142;37.948;2024-02-21T08:31:04;401.63;;;105.30;;
79139;SDS011;68546;59.142;37.948;2024-02-21T08:33:30;409.15;;;108.10;;
79139;SDS011;68546;59.142;37.948;2024-02-21T08:35:57;439.88;;;115.68;;
79139;SDS011;68546;59.142;37.948;2024-02-21T08:38:23;450.50;;;117.80;;
79139;SDS011;68546;59.142;37.948;2024-02-21T08:40:51;449.13;;;117.40;;
79139;SDS011;68546;59.142;37.948;2024-02-21T08:43:17;451.45;;;117.60;;
79139;SDS011;68546;59.142;37.948;2024-02-21T08:45:44;444.23;;;116.67;;
79139;SDS011;68546;59.142;37.948;2024-02-21T08:48:10;441.42;;;115.22;;
79139;SDS011;68546;59.142;37.948;2024-02-21T08:50:37;439.38;;;115.15;;
79139;SDS011;68546;59.142;37.948;2024-02-21T08:53:04;435.20;;;114.18;;
79139;SDS011;68546;59.142;37.948;2024-02-21T08:55:31;432.83;;;112.95;;
79139;SDS011;68546;59.142;37.948;2024-02-21T08:57:57;437.65;;;114.85;;
79139;SDS011;68546;59.142;37.948;2024-02-21T09:00:24;434.77;;;113.97;;
79139;SDS011;68546;59.142;37.948;2024-02-21T09:02:53;428.93;;;111.13;;
79139;SDS011;68546;59.142;37.948;2024-02-21T09:05:21;432.02;;;111.72;;
79139;SDS011;68546;59.142;37.948;2024-02-21T09:07:48;427.05;;;110.70;;
79139;SDS011;68546;59.142;37.948;2024-02-21T09:10:15;423.47;;;110.40;;
79139;SDS011;68546;59.142;37.948;2024-02-21T09:12:41;420.48;;;109.00;;
79139;SDS011;68546;59.142;37.948;2024-02-21T09:15:08;400.35;;;104.53;;
79139;SDS011;68546;59.142;37.948;2024-02-21T09:17:35;387.27;;;102.05;;
79139;SDS011;68546;59.142;37.948;2024-02-21T09:20:02;386.80;;;101.78;;
79139;SDS011;68546;59.142;37.948;2024-02-21T09:22:29;387.27;;;102.68;;
79139;SDS011;68546;59.142;37.948;2024-02-21T09:25:00;385.52;;;101.30;;
79139;SDS011;68546;59.142;37.948;2024-02-21T09:27:27;386.97;;;101.47;;
79139;SDS011;68546;59.142;37.948;2024-02-21T09:29:53;383.77;;;101.32;;
79139;SDS011;68546;59.142;37.948;2024-02-21T09:32:20;380.63;;;100.78;;
79139;SDS011;68546;59.142;37.948;2024-02-21T09:34:46;384.10;;;100.63;;
79139;SDS011;68546;59.142;37.948;2024-02-21T09:37:13;426.80;;;110.80;;
79139;SDS011;68546;59.142;37.948;2024-02-21T09:39:39;428.80;;;110.40;;
79139;SDS011;68546;59.142;37.948;2024-02-21T09:42:06;425.63;;;110.22;;
79139;SDS011;68546;59.142;37.948;2024-02-21T09:44:36;421.02;;;108.88;;
79139;SDS011;68546;59.142;37.948;2024-02-21T09:47:07;407.33;;;106.05;;
79139;SDS011;68546;59.142;37.948;2024-02-21T09:49:39;417.90;;;108.00;;
79139;SDS011;68546;59.142;37.948;2024-02-21T09:52:08;427.60;;;110.10;;
79139;SDS011;68546;59.142;37.948;2024-02-21T09:54:38;418.42;;;107.50;;
79139;SDS011;68546;59.142;37.948;2024-02-21T09:57:07;415.50;;;106.45;;
79139;SDS011;68546;59.142;37.948;2024-02-21T09:59:34;408.00;;;104.80;;
79139;SDS011;68546;59.142;37.948;2024-02-21T10:02:00;403.90;;;102.93;;
79139;SDS011;68546;59.142;37.948;2024-02-21T10:04:27;403.27;;;104.22;;
79139;SDS011;68546;59.142;37.948;2024-02-21T10:06:55;403.50;;;104.10;;
79139;SDS011;68546;59.142;37.948;2024-02-21T10:09:22;411.13;;;108.93;;
79139;SDS011;68546;59.142;37.948;2024-02-21T10:11:50;408.50;;;106.80;;
79139;SDS011;68546;59.142;37.948;2024-02-21T10:14:17;403.63;;;104.75;;
79139;SDS011;68546;59.142;37.948;2024-02-21T10:16:48;405.60;;;104.73;;
79139;SDS011;68546;59.142;37.948;2024-02-21T10:19:19;408.65;;;106.25;;
79139;SDS011;68546;59.142;37.948;2024-02-21T10:22:06;403.88;;;103.70;;
79139;SDS011;68546;59.142;37.948;2024-02-21T10:24:34;406.80;;;105.13;;
79139;SDS011;68546;59.142;37.948;2024-02-21T10:27:07;408.63;;;105.55;;
79139;SDS011;68546;59.142;37.948;2024-02-21T10:29:35;407.60;;;105.95;;
79139;SDS011;68546;59.142;37.948;2024-02-21T10:34:35;409.73;;;105.90;;
79139;SDS011;68546;59.142;37.948;2024-02-21T10:37:03;412.33;;;107.32;;
79139;SDS011;68546;59.142;37.948;2024-02-21T10:39:34;409.65;;;106.22;;
79139;SDS011;68546;59.142;37.948;2024-02-21T10:42:03;414.37;;;106.73;;
79139;SDS011;68546;59.142;37.948;2024-02-21T10:44:31;413.38;;;106.55;;
79139;SDS011;68546;59.142;37.948;2024-02-21T10:46:58;413.00;;;107.25;;
79139;SDS011;68546;59.142;37.948;2024-02-21T10:49:26;412.97;;;106.93;;
79139;SDS011;68546;59.142;37.948;2024-02-21T10:52:02;414.38;;;107.20;;
79139;SDS011;68546;59.142;37.948;2024-02-21T10:54:47;417.25;;;108.82;;
79139;SDS011;68546;59.142;37.948;2024-02-21T10:57:19;417.25;;;108.93;;
79139;SDS011;68546;59.142;37.948;2024-02-21T10:59:48;419.38;;;109.07;;
79139;SDS011;68546;59.142;37.948;2024-02-21T11:02:15;419.60;;;109.28;;
79139;SDS011;68546;59.142;37.948;2024-02-21T11:04:42;417.70;;;108.15;;
79139;SDS011;68546;59.142;37.948;2024-02-21T11:07:09;414.23;;;107.83;;
79139;SDS011;68546;59.142;37.948;2024-02-21T11:09:35;411.88;;;107.05;;
79139;SDS011;68546;59.142;37.948;2024-02-21T11:12:03;406.92;;;105.88;;
79139;SDS011;68546;59.142;37.948;2024-02-21T11:14:30;405.23;;;104.57;;
79139;SDS011;68546;59.142;37.948;2024-02-21T11:17:15;406.73;;;105.00;;
79139;SDS011;68546;59.142;37.948;2024-02-21T11:19:43;403.73;;;104.82;;
79139;SDS011;68546;59.142;37.948;2024-02-21T11:22:19;404.08;;;104.60;;
79139;SDS011;68546;59.142;37.948;2024-02-21T11:24:48;406.10;;;104.32;;
79139;SDS011;68546;59.142;37.948;2024-02-21T11:27:15;407.00;;;106.07;;
79139;SDS011;68546;59.142;37.948;2024-02-21T11:29:46;404.08;;;103.95;;
79139;SDS011;68546;59.142;37.948;2024-02-21T11:32:15;406.97;;;104.73;;
79139;SDS011;68546;59.142;37.948;2024-02-21T11:35:01;410.55;;;106.97;;
79139;SDS011;68546;59.142;37.948;2024-02-21T11:37:33;419.15;;;107.00;;
79139;SDS011;68546;59.142;37.948;2024-02-21T11:40:04;410.00;;;106.60;;
79139;SDS011;68546;59.142;37.948;2024-02-21T11:42:33;411.63;;;107.07;;
79139;SDS011;68546;59.142;37.948;2024-02-21T11:44:59;410.25;;;107.15;;
79139;SDS011;68546;59.142;37.948;2024-02-21T11:47:28;409.10;;;106.28;;
79139;SDS011;68546;59.142;37.948;2024-02-21T11:49:55;411.35;;;107.80;;
79139;SDS011;68546;59.142;37.948;2024-02-21T11:52:22;410.38;;;106.68;;
79139;SDS011;68546;59.142;37.948;2024-02-21T11:54:53;409.58;;;106.80;;
79139;SDS011;68546;59.142;37.948;2024-02-21T11:57:22;410.13;;;106.63;;
79139;SDS011;68546;59.142;37.948;2024-02-21T11:59:50;412.17;;;107.55;;
79139;SDS011;68546;59.142;37.948;2024-02-21T12:02:18;411.60;;;107.30;;
79139;SDS011;68546;59.142;37.948;2024-02-21T12:04:45;412.43;;;107.23;;
79139;SDS011;68546;59.142;37.948;2024-02-21T12:07:12;413.17;;;108.03;;
79139;SDS011;68546;59.142;37.948;2024-02-21T12:09:38;413.30;;;107.95;;
79139;SDS011;68546;59.142;37.948;2024-02-21T12:12:07;412.38;;;107.78;;
79139;SDS011;68546;59.142;37.948;2024-02-21T12:14:34;415.33;;;108.63;;
79139;SDS011;68546;59.142;37.948;2024-02-21T12:17:01;415.63;;;109.55;;
79139;SDS011;68546;59.142;37.948;2024-02-21T12:19:32;412.67;;;107.80;;
79139;SDS011;68546;59.142;37.948;2024-02-21T12:21:59;412.73;;;107.73;;
79139;SDS011;68546;59.142;37.948;2024-02-21T12:24:27;414.85;;;108.07;;
79139;SDS011;68546;59.142;37.948;2024-02-21T12:26:55;416.45;;;109.50;;
79139;SDS011;68546;59.142;37.948;2024-02-21T12:29:25;416.43;;;108.80;;
79139;SDS011;68546;59.142;37.948;2024-02-21T12:31:52;417.52;;;109.60;;
79139;SDS011;68546;59.142;37.948;2024-02-21T12:34:20;418.65;;;109.70;;
79139;SDS011;68546;59.142;37.948;2024-02-21T12:36:48;414.80;;;108.45;;
79139;SDS011;68546;59.142;37.948;2024-02-21T12:39:14;414.92;;;108.57;;
79139;SDS011;68546;59.142;37.948;2024-02-21T12:41:42;416.02;;;109.97;;
79139;SDS011;68546;59.142;37.948;2024-02-21T12:44:10;413.77;;;108.30;;
79139;SDS011;68546;59.142;37.948;2024-02-21T12:46:37;414.83;;;108.47;;
79139;SDS011;68546;59.142;37.948;2024-02-21T12:49:05;417.73;;;109.80;;
79139;SDS011;68546;59.142;37.948;2024-02-21T12:51:35;417.08;;;108.38;;
79139;SDS011;68546;59.142;37.948;2024-02-21T12:54:02;419.30;;;110.10;;
79139;SDS011;68546;59.142;37.948;2024-02-21T12:56:28;419.90;;;109.32;;
79139;SDS011;68546;59.142;37.948;2024-02-21T12:58:57;417.40;;;110.07;;
79139;SDS011;68546;59.142;37.948;2024-02-21T13:01:24;418.20;;;109.63;;
79139;SDS011;68546;59.142;37.948;2024-02-21T13:03:53;422.02;;;111.57;;
79139;SDS011;68546;59.142;37.948;2024-02-21T13:06:21;420.80;;;110.90;;
79139;SDS011;68546;59.142;37.948;2024-02-21T13:08:48;420.30;;;110.32;;
79139;SDS011;68546;59.142;37.948;2024-02-21T13:11:14;419.33;;;109.20;;
79139;SDS011;68546;59.142;37.948;2024-02-21T13:13:41;422.35;;;111.30;;
79139;SDS011;68546;59.142;37.948;2024-02-21T13:16:07;420.83;;;110.22;;
79139;SDS011;68546;59.142;37.948;2024-02-21T13:18:37;423.73;;;112.00;;
79139;SDS011;68546;59.142;37.948;2024-02-21T13:21:04;422.55;;;111.15;;
79139;SDS011;68546;59.142;37.948;2024-02-21T13:23:31;421.80;;;110.55;;
79139;SDS011;68546;59.142;37.948;2024-02-21T13:25:58;422.52;;;111.65;;
79139;SDS011;68546;59.142;37.948;2024-02-21T13:28:24;425.60;;;113.05;;
79139;SDS011;68546;59.142;37.948;2024-02-21T13:30:50;427.75;;;113.80;;
79139;SDS011;68546;59.142;37.948;2024-02-21T13:33:17;425.15;;;113.15;;
79139;SDS011;68546;59.142;37.948;2024-02-21T13:35:43;423.67;;;111.50;;
79139;SDS011;68546;59.142;37.948;2024-02-21T13:38:10;429.77;;;113.50;;
79139;SDS011;68546;59.142;37.948;2024-02-21T13:40:37;426.80;;;112.95;;
79139;SDS011;68546;59.142;37.948;2024-02-21T13:43:03;426.20;;;112.70;;
79139;SDS011;68546;59.142;37.948;2024-02-21T13:45:30;428.05;;;113.57;;
79139;SDS011;68546;59.142;37.948;2024-02-21T13:47:57;428.13;;;113.63;;